Springfield, Ohio
Current Conditions -  °F | °C
As of 5:56 PM on Wednesday 26 Nov 2014 (Local Time) from KSGH Reporting Station
Overcast Overcast  
Wind Chill: 33°   Ceiling: 2300
Heat Index: 33°   Visibility: 8mi
Dew Point: 25°   Wind: 0mph
Humidity: 73%   Direction: NA
Pressure: 30.05"   Gusts: NA
Location:  39.93°N, 83.81°W
Report Text: KSGH 262256Z AUTO 00000KT 8SM OVC023 01/M04 A3005 RMK AO2 T00051038 SLP187 $
Loading
Personal Weather Stations






























Interactive Weather Map New forecast layout! Learn more

10-Day Weather Forecast

Advertisements
Track Severe Weather on mobile